createdAt,value
2023-04-16T00:00:09.948Z,100.00
2023-04-16T00:02:41.520Z,100.00
2023-04-16T00:05:10.935Z,100.00
2023-04-16T00:07:40.874Z,100.00
2023-04-16T00:10:10.037Z,100.00
2023-04-16T00:12:38.401Z,100.00
2023-04-16T00:15:06.514Z,100.00
2023-04-16T00:17:34.496Z,100.00
2023-04-16T00:20:03.086Z,100.00
2023-04-16T00:22:30.707Z,100.00
2023-04-16T00:24:59.593Z,100.00
2023-04-16T00:27:27.757Z,100.00
2023-04-16T00:29:55.509Z,100.00
2023-04-16T00:32:25.362Z,100.00
2023-04-16T00:34:53.583Z,100.00
2023-04-16T00:37:21.508Z,100.00
2023-04-16T00:39:49.076Z,100.00
2023-04-16T00:42:17.948Z,100.00
2023-04-16T00:44:46.422Z,100.00
2023-04-16T00:47:15.082Z,100.00
2023-04-16T00:49:42.748Z,100.00
2023-04-16T00:52:12.761Z,100.00
2023-04-16T00:54:41.597Z,100.00
2023-04-16T00:57:09.823Z,100.00
2023-04-16T00:59:38.907Z,100.00
2023-04-16T01:02:06.907Z,100.00
2023-04-16T01:04:36.619Z,100.00
2023-04-16T01:07:04.883Z,100.00
2023-04-16T01:09:32.477Z,100.00
2023-04-16T01:12:00.340Z,100.00
2023-04-16T01:14:27.926Z,100.00
2023-04-16T01:16:57.015Z,100.00
2023-04-16T01:19:29.044Z,100.00
2023-04-16T01:22:00.193Z,100.00
2023-04-16T01:24:27.718Z,100.00
2023-04-16T01:26:55.628Z,100.00
2023-04-16T01:29:23.434Z,100.00
2023-04-16T01:31:51.834Z,100.00
2023-04-16T01:34:37.514Z,100.00
2023-04-16T01:37:07.022Z,100.00
2023-04-16T01:39:36.896Z,100.00
2023-04-16T01:42:05.095Z,100.00
2023-04-16T01:44:32.833Z,100.00
2023-04-16T01:47:00.591Z,100.00
2023-04-16T01:49:28.480Z,100.00
2023-04-16T01:51:57.916Z,100.00
2023-04-16T01:54:54.624Z,100.00
2023-04-16T01:57:23.014Z,100.00
2023-04-16T01:59:50.694Z,100.00
2023-04-16T02:02:18.805Z,100.00
2023-04-16T02:04:47.343Z,100.00
2023-04-16T02:07:17.081Z,100.00
2023-04-16T02:09:44.930Z,100.00
2023-04-16T02:12:16.026Z,100.00
2023-04-16T02:14:43.627Z,100.00
2023-04-16T02:17:15.594Z,100.00
2023-04-16T02:19:44.893Z,100.00
2023-04-16T02:22:13.004Z,100.00
2023-04-16T02:24:40.915Z,100.00
2023-04-16T02:27:11.099Z,100.00
2023-04-16T02:29:42.683Z,100.00
2023-04-16T02:32:15.591Z,100.00
2023-04-16T02:34:45.912Z,100.00
2023-04-16T02:37:16.819Z,100.00
2023-04-16T02:39:47.092Z,100.00
2023-04-16T02:42:16.063Z,100.00
2023-04-16T02:44:45.277Z,100.00
2023-04-16T02:47:13.208Z,100.00
2023-04-16T02:49:42.306Z,100.00
2023-04-16T02:52:09.944Z,100.00
2023-04-16T02:54:39.393Z,100.00
2023-04-16T02:57:06.988Z,100.00
2023-04-16T02:59:34.648Z,100.00
2023-04-16T03:02:03.846Z,100.00
2023-04-16T03:04:31.524Z,100.00
2023-04-16T03:06:59.469Z,100.00
2023-04-16T03:09:27.039Z,100.00
2023-04-16T03:11:54.653Z,100.00
2023-04-16T03:14:22.448Z,100.00
2023-04-16T03:16:50.025Z,100.00
2023-04-16T03:19:18.907Z,100.00
2023-04-16T03:21:50.345Z,100.00
2023-04-16T03:24:18.979Z,100.00
2023-04-16T03:26:49.886Z,100.00
2023-04-16T03:29:18.063Z,100.00
2023-04-16T03:31:45.612Z,100.00
2023-04-16T03:34:13.249Z,100.00
2023-04-16T03:36:43.323Z,100.00
2023-04-16T03:39:11.155Z,100.00
2023-04-16T03:41:39.009Z,100.00
2023-04-16T03:44:06.659Z,100.00
2023-04-16T03:46:35.620Z,100.00
2023-04-16T03:49:03.268Z,100.00
2023-04-16T03:51:31.193Z,100.00
2023-04-16T03:54:00.107Z,100.00
2023-04-16T03:56:29.013Z,100.00
2023-04-16T03:59:23.268Z,100.00
2023-04-16T04:01:51.984Z,100.00
2023-04-16T04:04:45.209Z,100.00
2023-04-16T04:07:14.914Z,100.00
2023-04-16T04:09:44.920Z,100.00
2023-04-16T04:12:13.436Z,100.00
2023-04-16T04:14:43.342Z,100.00
2023-04-16T04:17:12.091Z,100.00
2023-04-16T04:19:47.171Z,100.00
2023-04-16T04:22:20.392Z,100.00
2023-04-16T04:24:50.048Z,100.00
2023-04-16T04:27:17.663Z,100.00
2023-04-16T04:29:45.356Z,100.00
2023-04-16T04:32:13.782Z,100.00
2023-04-16T04:34:41.925Z,100.00
2023-04-16T04:37:10.487Z,100.00
2023-04-16T04:39:39.830Z,100.00
2023-04-16T04:42:09.425Z,100.00
2023-04-16T04:44:37.356Z,100.00
2023-04-16T04:47:05.013Z,100.00
2023-04-16T04:49:33.079Z,100.00
2023-04-16T04:52:01.260Z,100.00
2023-04-16T04:54:29.939Z,100.00
2023-04-16T04:56:57.827Z,100.00
2023-04-16T04:59:26.920Z,100.00
2023-04-16T05:01:55.350Z,100.00
2023-04-16T05:04:22.988Z,100.00
2023-04-16T05:06:50.622Z,100.00
2023-04-16T05:09:18.204Z,100.00
2023-04-16T05:11:48.297Z,100.00
2023-04-16T05:14:15.856Z,100.00
2023-04-16T05:16:44.812Z,100.00
2023-04-16T05:19:12.532Z,100.00
2023-04-16T05:21:40.245Z,100.00
2023-04-16T05:24:07.850Z,100.00
2023-04-16T05:26:35.592Z,100.00
2023-04-16T05:29:03.196Z,100.00
2023-04-16T05:31:34.303Z,100.00
2023-04-16T05:34:03.287Z,100.00
2023-04-16T05:36:30.803Z,100.00
2023-04-16T05:38:58.403Z,100.00
2023-04-16T05:41:26.640Z,100.00
2023-04-16T05:43:54.180Z,100.00
2023-04-16T05:46:21.947Z,100.00
2023-04-16T05:48:49.620Z,100.00
2023-04-16T05:51:18.922Z,100.00
2023-04-16T05:53:46.515Z,100.00
2023-04-16T05:56:14.530Z,100.00
2023-04-16T05:58:42.103Z,100.00
2023-04-16T06:01:11.904Z,100.00
2023-04-16T06:03:40.017Z,100.00
2023-04-16T06:06:09.718Z,100.00
2023-04-16T06:08:38.928Z,100.00
2023-04-16T06:11:06.682Z,100.00
2023-04-16T06:13:34.280Z,100.00
2023-04-16T06:16:02.086Z,100.00
2023-04-16T06:18:30.546Z,100.00
2023-04-16T06:20:58.772Z,100.00
2023-04-16T06:23:26.432Z,100.00
2023-04-16T06:25:55.943Z,100.00
2023-04-16T06:28:25.956Z,100.00
2023-04-16T06:31:19.087Z,100.00
2023-04-16T06:33:46.757Z,100.00
2023-04-16T06:36:14.379Z,100.00
2023-04-16T06:38:42.206Z,100.00
2023-04-16T06:41:11.184Z,100.00
2023-04-16T06:43:39.394Z,100.00
2023-04-16T06:46:06.969Z,100.00
2023-04-16T06:48:34.566Z,100.00
2023-04-16T06:51:02.239Z,100.00
2023-04-16T06:53:29.936Z,100.00
2023-04-16T06:55:57.490Z,100.00
2023-04-16T06:58:31.100Z,100.00
2023-04-16T07:00:58.723Z,100.00
2023-04-16T07:03:26.486Z,100.00
2023-04-16T07:05:54.452Z,100.00
2023-04-16T07:08:21.975Z,100.00
2023-04-16T07:10:50.156Z,100.00
2023-04-16T07:13:18.475Z,100.00
2023-04-16T07:15:47.916Z,100.00
2023-04-16T07:18:15.710Z,100.00
2023-04-16T07:21:07.845Z,100.00
2023-04-16T07:23:35.502Z,100.00
2023-04-16T07:26:04.967Z,100.00
2023-04-16T07:28:32.700Z,100.00
2023-04-16T07:31:02.072Z,100.00
2023-04-16T07:33:29.659Z,100.00
2023-04-16T07:35:58.035Z,100.00
2023-04-16T07:38:25.673Z,100.00
2023-04-16T07:40:53.465Z,100.00
2023-04-16T07:43:23.912Z,100.00
2023-04-16T07:45:52.440Z,100.00
2023-04-16T07:48:21.397Z,100.00
2023-04-16T07:50:50.098Z,100.00
2023-04-16T07:53:17.702Z,100.00
2023-04-16T07:55:45.502Z,100.00
2023-04-16T07:58:38.376Z,100.00
2023-04-16T08:01:06.599Z,100.00
2023-04-16T08:03:35.858Z,100.00
2023-04-16T08:06:03.728Z,100.00
2023-04-16T08:08:31.938Z,100.00
2023-04-16T08:11:00.906Z,100.00
2023-04-16T08:13:28.586Z,100.00
2023-04-16T08:15:56.206Z,100.00
2023-04-16T08:18:23.977Z,100.00
2023-04-16T08:20:52.925Z,100.00
2023-04-16T08:23:21.957Z,100.00
2023-04-16T08:25:51.261Z,100.00
2023-04-16T08:28:20.220Z,100.00
2023-04-16T08:30:47.825Z,100.00
2023-04-16T08:33:15.501Z,100.00
2023-04-16T08:35:43.096Z,100.00
2023-04-16T08:38:11.998Z,100.00
2023-04-16T08:40:41.933Z,100.00
2023-04-16T08:43:39.125Z,100.00
2023-04-16T08:46:07.534Z,100.00
2023-04-16T08:48:36.226Z,100.00
2023-04-16T08:51:11.955Z,100.00
2023-04-16T08:53:50.188Z,100.00
2023-04-16T08:56:23.981Z,100.00
2023-04-16T08:58:53.755Z,100.00
2023-04-16T09:01:22.330Z,100.00
2023-04-16T09:03:50.162Z,100.00
2023-04-16T09:06:18.231Z,100.00
2023-04-16T09:08:49.026Z,100.00
2023-04-16T09:11:20.102Z,100.00
2023-04-16T09:13:49.056Z,100.00
2023-04-16T09:16:18.984Z,100.00
2023-04-16T09:18:47.953Z,100.00
2023-04-16T09:21:16.358Z,100.00
2023-04-16T09:23:44.685Z,100.00
2023-04-16T09:26:13.951Z,100.00
2023-04-16T09:28:43.411Z,100.00
2023-04-16T09:31:15.098Z,100.00
2023-04-16T09:33:42.775Z,100.00
2023-04-16T09:36:11.034Z,100.00
2023-04-16T09:38:48.776Z,100.00
2023-04-16T09:41:17.975Z,100.00
2023-04-16T09:43:57.116Z,100.00
2023-04-16T09:46:26.182Z,100.00
2023-04-16T09:48:53.798Z,100.00
2023-04-16T09:51:21.424Z,100.00
2023-04-16T09:53:52.653Z,100.00
2023-04-16T09:56:24.825Z,99.71
2023-04-16T09:58:57.956Z,99.17
2023-04-16T10:01:27.095Z,97.31
2023-04-16T10:03:56.076Z,97.44
2023-04-16T10:06:25.367Z,97.40
2023-04-16T10:08:56.830Z,96.32
2023-04-16T10:11:27.958Z,96.23
2023-04-16T10:13:55.668Z,96.09
2023-04-16T10:16:23.608Z,94.96
2023-04-16T10:18:53.396Z,93.45
2023-04-16T10:21:22.188Z,92.41
2023-04-16T10:23:51.279Z,92.37
2023-04-16T10:26:19.592Z,92.00
2023-04-16T10:28:48.956Z,91.75
2023-04-16T10:31:16.778Z,91.50
2023-04-16T10:33:45.938Z,90.99
2023-04-16T10:36:15.734Z,91.44
2023-04-16T10:38:48.949Z,90.89
2023-04-16T10:41:17.289Z,89.78
2023-04-16T10:43:49.955Z,88.08
2023-04-16T10:46:21.421Z,88.44
2023-04-16T10:48:50.918Z,87.94
2023-04-16T10:51:31.290Z,88.05
2023-04-16T10:54:04.672Z,85.72
2023-04-16T10:56:33.976Z,85.35
2023-04-16T10:59:05.190Z,85.79
2023-04-16T11:01:36.377Z,85.22
2023-04-16T11:04:29.314Z,85.04
2023-04-16T11:07:21.994Z,85.20
2023-04-16T11:10:00.213Z,85.26
2023-04-16T11:12:35.436Z,84.81
2023-04-16T11:15:04.395Z,84.67
2023-04-16T11:17:37.529Z,84.43
2023-04-16T11:20:19.542Z,85.01
2023-04-16T11:22:48.909Z,85.06
2023-04-16T11:25:20.868Z,82.66
2023-04-16T11:27:48.621Z,81.00
2023-04-16T11:30:16.475Z,80.39
2023-04-16T11:32:47.437Z,81.14
2023-04-16T11:35:17.258Z,80.35
2023-04-16T11:37:46.945Z,80.76
2023-04-16T11:40:15.095Z,80.40
2023-04-16T11:42:44.172Z,81.15
2023-04-16T11:45:14.116Z,80.36
2023-04-16T11:47:46.857Z,80.04
2023-04-16T11:50:19.943Z,79.24
2023-04-16T11:52:49.926Z,79.30
2023-04-16T11:55:17.740Z,79.06
2023-04-16T11:57:45.890Z,78.37
2023-04-16T12:00:15.257Z,77.34
2023-04-16T12:02:45.931Z,77.88
2023-04-16T12:05:32.065Z,77.00
2023-04-16T12:08:01.193Z,76.48
2023-04-16T12:10:29.243Z,76.44
2023-04-16T12:13:13.369Z,76.62
2023-04-16T12:15:48.820Z,76.65
2023-04-16T12:18:18.736Z,75.04
2023-04-16T12:20:48.210Z,75.92
2023-04-16T12:23:26.794Z,75.80
2023-04-16T12:25:55.067Z,75.39
2023-04-16T12:28:33.001Z,75.14
2023-04-16T12:31:02.066Z,75.45
2023-04-16T12:33:31.451Z,75.85
2023-04-16T12:35:59.526Z,75.87
2023-04-16T12:38:28.083Z,76.44
2023-04-16T12:40:57.004Z,76.56
2023-04-16T12:46:17.494Z,77.13
2023-04-16T12:48:46.908Z,77.51
2023-04-16T12:51:14.480Z,77.66
2023-04-16T12:53:43.943Z,77.42
2023-04-16T12:56:12.404Z,77.46
2023-04-16T12:58:40.110Z,77.58
2023-04-16T13:01:09.082Z,77.60
2023-04-16T13:03:37.212Z,78.33
2023-04-16T13:06:06.551Z,79.09
2023-04-16T13:08:34.154Z,79.64
2023-04-16T13:11:06.981Z,79.84
2023-04-16T13:13:36.536Z,79.68
2023-04-16T13:16:06.658Z,79.50
2023-04-16T13:18:34.353Z,78.46
2023-04-16T13:21:02.072Z,78.27
2023-04-16T13:23:31.374Z,78.45
2023-04-16T13:26:02.392Z,76.99
2023-04-16T13:28:30.648Z,76.12
2023-04-16T13:30:58.778Z,75.40
2023-04-16T13:33:26.884Z,75.57
2023-04-16T13:35:54.980Z,75.47
2023-04-16T13:38:22.630Z,75.83
2023-04-16T13:40:51.707Z,75.84
2023-04-16T13:43:19.576Z,75.55
2023-04-16T13:45:47.183Z,75.45
2023-04-16T13:48:14.727Z,74.79
2023-04-16T13:50:42.312Z,75.24
2023-04-16T13:53:09.926Z,75.39
2023-04-16T13:55:37.628Z,75.00
2023-04-16T13:58:07.100Z,76.04
2023-04-16T14:00:38.175Z,75.54
2023-04-16T14:03:07.567Z,76.01
2023-04-16T14:05:35.524Z,76.18
2023-04-16T14:08:27.796Z,76.84
2023-04-16T14:10:56.973Z,76.33
2023-04-16T14:13:51.890Z,76.27
2023-04-16T14:16:21.691Z,76.32
2023-04-16T14:18:49.435Z,76.29
2023-04-16T14:21:17.122Z,75.39
2023-04-16T14:23:44.723Z,75.51
2023-04-16T14:26:12.448Z,73.84
2023-04-16T14:28:41.164Z,74.40
2023-04-16T14:31:10.053Z,74.64
2023-04-16T14:33:37.960Z,74.72
2023-04-16T14:36:06.280Z,75.43
2023-04-16T14:38:37.970Z,75.06
2023-04-16T14:41:10.574Z,75.82
2023-04-16T14:43:40.441Z,75.38
2023-04-16T14:46:35.994Z,75.33
2023-04-16T14:49:04.004Z,76.02
2023-04-16T14:51:31.947Z,75.67
2023-04-16T14:53:59.588Z,75.42
2023-04-16T14:56:28.097Z,75.88
2023-04-16T14:58:55.683Z,75.37
2023-04-16T15:01:23.316Z,74.94
2023-04-16T15:03:52.484Z,74.78
2023-04-16T15:06:21.181Z,75.03
2023-04-16T15:08:48.977Z,74.68
2023-04-16T15:11:16.607Z,73.96
2023-04-16T15:13:44.283Z,74.16
2023-04-16T15:16:12.111Z,74.13
2023-04-16T15:18:39.778Z,73.69
2023-04-16T15:21:11.113Z,74.35
2023-04-16T15:23:41.605Z,73.91
2023-04-16T15:26:09.171Z,73.28
2023-04-16T15:28:36.898Z,73.00
2023-04-16T15:31:06.419Z,73.71
2023-04-16T15:33:33.999Z,74.08
2023-04-16T15:36:01.636Z,74.75
2023-04-16T15:38:35.083Z,74.81
2023-04-16T15:41:02.975Z,74.10
2023-04-16T15:43:30.704Z,74.34
2023-04-16T15:45:58.525Z,74.38
2023-04-16T15:48:26.351Z,73.74
2023-04-16T15:50:55.975Z,74.08
2023-04-16T15:53:23.685Z,74.71
2023-04-16T15:55:54.025Z,75.05
2023-04-16T15:58:22.946Z,74.87
2023-04-16T16:00:52.619Z,74.73
2023-04-16T16:03:21.447Z,74.30
2023-04-16T16:05:49.321Z,74.15
2023-04-16T16:08:17.437Z,73.86
2023-04-16T16:10:46.640Z,73.55
2023-04-16T16:13:21.969Z,73.84
2023-04-16T16:15:50.622Z,73.84
2023-04-16T16:18:18.500Z,74.45
2023-04-16T16:20:46.281Z,74.57
2023-04-16T16:23:13.841Z,74.79
2023-04-16T16:25:42.046Z,74.84
2023-04-16T16:28:10.559Z,73.88
2023-04-16T16:30:39.540Z,73.70
2023-04-16T16:33:07.713Z,73.85
2023-04-16T16:35:35.561Z,73.60
2023-04-16T16:38:03.199Z,73.61
2023-04-16T16:40:31.602Z,74.18
2023-04-16T16:42:59.282Z,74.32
2023-04-16T16:45:32.268Z,73.49
2023-04-16T16:48:03.797Z,73.23
2023-04-16T16:50:32.352Z,73.65
2023-04-16T16:53:00.660Z,74.18
2023-04-16T16:55:28.467Z,74.16
2023-04-16T16:57:56.965Z,74.46
2023-04-16T17:00:24.562Z,74.56
2023-04-16T17:02:53.311Z,74.56
2023-04-16T17:05:26.162Z,74.08
2023-04-16T17:07:53.849Z,74.89
2023-04-16T17:10:22.329Z,75.00
2023-04-16T17:12:51.027Z,75.85
2023-04-16T17:15:21.231Z,75.97
2023-04-16T17:17:49.539Z,76.25
2023-04-16T17:20:17.455Z,76.40
2023-04-16T17:22:46.387Z,75.73
2023-04-16T17:25:14.268Z,75.97
2023-04-16T17:27:41.918Z,76.22
2023-04-16T17:30:10.415Z,76.05
2023-04-16T17:32:37.996Z,76.11
2023-04-16T17:35:07.101Z,76.29
2023-04-16T17:37:35.403Z,76.65
2023-04-16T17:40:07.347Z,76.17
2023-04-16T17:42:35.636Z,75.71
2023-04-16T17:45:03.930Z,75.75
2023-04-16T17:47:31.572Z,75.78
2023-04-16T17:49:59.283Z,76.34
2023-04-16T17:52:27.185Z,75.95
2023-04-16T17:55:01.185Z,76.20
2023-04-16T17:57:30.684Z,76.17
2023-04-16T17:59:58.661Z,76.36
2023-04-16T18:02:26.925Z,76.54
2023-04-16T18:04:54.760Z,76.39
2023-04-16T18:07:22.405Z,76.55
2023-04-16T18:09:49.984Z,76.58
2023-04-16T18:12:17.882Z,77.18
2023-04-16T18:14:47.107Z,77.26
2023-04-16T18:17:17.748Z,77.67
2023-04-16T18:19:45.524Z,77.82
2023-04-16T18:22:13.558Z,78.15
2023-04-16T18:24:41.151Z,78.28
2023-04-16T18:27:08.800Z,78.50
2023-04-16T18:29:38.799Z,78.40
2023-04-16T18:32:12.023Z,78.83
2023-04-16T18:34:40.601Z,79.02
2023-04-16T18:37:09.153Z,79.47
2023-04-16T18:39:38.510Z,80.14
2023-04-16T18:42:06.637Z,80.15
2023-04-16T18:44:34.562Z,80.58
2023-04-16T18:47:03.006Z,80.80
2023-04-16T18:49:32.122Z,80.80
2023-04-16T18:52:00.490Z,81.23
2023-04-16T18:54:28.278Z,81.54
2023-04-16T18:56:56.789Z,82.28
2023-04-16T18:59:25.245Z,83.05
2023-04-16T19:01:53.483Z,83.51
2023-04-16T19:04:21.126Z,83.71
2023-04-16T19:06:50.731Z,83.89
2023-04-16T19:09:19.243Z,85.39
2023-04-16T19:11:47.742Z,86.93
2023-04-16T19:14:15.530Z,88.98
2023-04-16T19:16:43.306Z,91.09
2023-04-16T19:19:11.162Z,92.05
2023-04-16T19:21:39.105Z,92.83
2023-04-16T19:24:08.630Z,93.83
2023-04-16T19:26:36.200Z,94.49
2023-04-16T19:29:03.812Z,95.14
2023-04-16T19:31:31.722Z,95.21
2023-04-16T19:33:59.464Z,95.82
2023-04-16T19:36:27.123Z,96.33
2023-04-16T19:38:54.662Z,96.55
2023-04-16T19:41:23.629Z,96.35
2023-04-16T19:43:51.370Z,96.30
2023-04-16T19:46:19.002Z,96.56
2023-04-16T19:48:46.544Z,97.00
2023-04-16T19:51:14.187Z,97.04
2023-04-16T19:53:42.123Z,97.22
2023-04-16T19:56:10.398Z,97.25
2023-04-16T19:58:40.868Z,97.33
2023-04-16T20:01:09.783Z,97.14
2023-04-16T20:03:39.751Z,97.42
2023-04-16T20:06:07.984Z,97.58
2023-04-16T20:08:35.800Z,97.53
2023-04-16T20:11:03.500Z,97.79
2023-04-16T20:13:31.995Z,97.93
2023-04-16T20:16:01.580Z,98.23
2023-04-16T20:18:29.256Z,98.44
2023-04-16T20:20:56.872Z,98.21
2023-04-16T20:23:25.991Z,98.02
2023-04-16T20:25:53.938Z,97.96
2023-04-16T20:28:22.448Z,98.10
2023-04-16T20:30:50.985Z,98.48
2023-04-16T20:33:20.219Z,99.08
2023-04-16T20:35:50.791Z,99.76
2023-04-16T20:38:23.549Z,100.00
2023-04-16T20:40:58.015Z,100.00
2023-04-16T20:43:29.499Z,100.00
2023-04-16T20:45:57.149Z,100.00
2023-04-16T20:48:26.168Z,100.00
2023-04-16T20:50:59.480Z,100.00
2023-04-16T20:53:29.012Z,100.00
2023-04-16T20:56:22.016Z,100.00
2023-04-16T20:58:49.701Z,100.00
2023-04-16T21:01:18.224Z,100.00
2023-04-16T21:03:48.323Z,100.00
2023-04-16T21:06:17.637Z,100.00
2023-04-16T21:08:45.305Z,100.00
2023-04-16T21:11:13.051Z,100.00
2023-04-16T21:13:41.286Z,100.00
2023-04-16T21:16:09.778Z,100.00
2023-04-16T21:18:37.639Z,100.00
2023-04-16T21:21:07.161Z,100.00
2023-04-16T21:23:34.968Z,100.00
2023-04-16T21:26:04.204Z,100.00
2023-04-16T21:28:31.837Z,100.00
2023-04-16T21:30:59.722Z,100.00
2023-04-16T21:33:27.525Z,100.00
2023-04-16T21:35:55.875Z,100.00
2023-04-16T21:38:25.126Z,100.00
2023-04-16T21:40:54.043Z,100.00
2023-04-16T21:43:22.005Z,100.00
2023-04-16T21:45:53.160Z,100.00
2023-04-16T21:48:21.095Z,100.00
2023-04-16T21:50:48.825Z,100.00
2023-04-16T21:53:16.434Z,100.00
2023-04-16T21:55:45.460Z,100.00
2023-04-16T21:58:13.210Z,100.00
2023-04-16T22:00:40.864Z,100.00
2023-04-16T22:03:08.881Z,100.00
2023-04-16T22:05:37.128Z,100.00
2023-04-16T22:08:21.064Z,100.00
2023-04-16T22:10:53.045Z,100.00
2023-04-16T22:13:21.529Z,100.00
2023-04-16T22:15:49.098Z,100.00
2023-04-16T22:18:16.783Z,100.00
2023-04-16T22:20:47.164Z,100.00
2023-04-16T22:23:14.978Z,100.00
2023-04-16T22:25:42.842Z,100.00
2023-04-16T22:28:12.924Z,100.00
2023-04-16T22:30:40.641Z,100.00
2023-04-16T22:33:09.049Z,100.00
2023-04-16T22:35:36.909Z,100.00
2023-04-16T22:38:04.499Z,100.00
2023-04-16T22:40:32.612Z,100.00
2023-04-16T22:43:00.365Z,100.00
2023-04-16T22:45:29.439Z,100.00
2023-04-16T22:47:57.059Z,100.00
2023-04-16T22:50:26.151Z,100.00
2023-04-16T22:52:53.719Z,100.00
2023-04-16T22:55:22.087Z,100.00
2023-04-16T22:57:49.680Z,100.00
2023-04-16T23:00:17.965Z,100.00
2023-04-16T23:02:47.146Z,100.00
2023-04-16T23:05:15.056Z,100.00
2023-04-16T23:07:42.708Z,100.00
2023-04-16T23:10:11.118Z,100.00
2023-04-16T23:12:38.637Z,100.00
2023-04-16T23:15:07.310Z,100.00
2023-04-16T23:17:36.025Z,100.00
2023-04-16T23:20:07.511Z,100.00
2023-04-16T23:22:35.977Z,100.00
2023-04-16T23:25:03.561Z,100.00
2023-04-16T23:27:32.369Z,100.00
2023-04-16T23:30:01.199Z,100.00
2023-04-16T23:32:28.841Z,100.00
2023-04-16T23:34:56.570Z,100.00
2023-04-16T23:37:25.611Z,100.00
2023-04-16T23:39:53.542Z,100.00
2023-04-16T23:42:21.345Z,100.00
2023-04-16T23:44:48.996Z,100.00
2023-04-16T23:47:16.619Z,100.00
2023-04-16T23:49:44.809Z,100.00
2023-04-16T23:52:12.370Z,100.00
2023-04-16T23:54:43.109Z,100.00
2023-04-16T23:57:12.019Z,100.00
2023-04-16T23:59:39.801Z,100.00
